Time;durP1;ratioP1;P1;durP2;ratioP2;P2;SDS_P1;SDS_P2;PMS_P1;PMS_P2;Temp;Humidity;BMP_temperature;BMP_pressure;BME280_temperature;BME280_humidity;BME280_pressure;Samples;Min_cycle;Max_cycle;Signal;HPM_P1;HPM_P2
2021/01/15 00:01:36;;;;;;;0.00;0.00;;;-0.50;99.90;;;;;;5002694;28;20039;-84
2021/01/15 00:04:03;;;;;;;0.00;0.00;;;-0.50;99.90;;;;;;4970296;28;20147;-81
2021/01/15 00:06:28;;;;;;;0.00;0.00;;;-0.40;99.90;;;;;;4982683;28;20033;-81
2021/01/15 00:08:55;;;;;;;0.00;0.00;;;-0.40;99.90;;;;;;4983040;28;20095;-82
2021/01/15 00:11:21;;;;;;;0.00;0.00;;;-0.40;99.90;;;;;;4983236;28;20035;-81
2021/01/15 00:13:48;;;;;;;0.00;0.00;;;-0.30;99.90;;;;;;4982988;28;20028;-82
2021/01/15 00:16:24;;;;;;;0.00;0.00;;;-0.30;99.90;;;;;;4982445;28;20042;-81
2021/01/15 00:18:51;;;;;;;0.00;0.00;;;-0.30;99.90;;;;;;4998930;28;20050;-81
2021/01/15 00:21:28;;;;;;;0.00;0.00;;;-0.40;99.90;;;;;;4966750;29;20040;-83
2021/01/15 00:23:58;;;;;;;0.00;0.00;;;-0.30;99.90;;;;;;4990097;28;20058;-81
2021/01/15 00:26:26;;;;;;;0.00;0.00;;;-0.30;99.90;;;;;;5002212;28;20031;-82
2021/01/15 00:28:53;;;;;;;0.00;0.00;;;-0.30;99.90;;;;;;4987277;28;20046;-82
2021/01/15 00:31:19;;;;;;;0.00;0.00;;;-0.20;99.90;;;;;;5002149;28;20035;-83
2021/01/15 00:33:45;;;;;;;0.00;0.00;;;-0.20;99.90;;;;;;5002228;28;20035;-82
2021/01/15 00:36:11;;;;;;;0.00;0.00;;;-0.10;99.90;;;;;;5002239;28;20023;-83
2021/01/15 00:38:37;;;;;;;0.00;0.00;;;-0.10;99.90;;;;;;5002077;28;20098;-81
2021/01/15 00:41:06;;;;;;;0.00;0.00;;;-0.10;99.90;;;;;;5002454;28;20035;-82
2021/01/15 00:43:33;;;;;;;0.00;0.00;;;-0.10;99.90;;;;;;4985966;28;20050;-82
2021/01/15 00:45:59;;;;;;;0.00;0.00;;;-0.10;99.90;;;;;;5002052;28;20034;-81
2021/01/15 00:48:25;;;;;;;0.10;0.10;;;-0.10;99.90;;;;;;5001706;28;20146;-82
2021/01/15 00:50:50;;;;;;;0.00;0.00;;;-0.10;99.90;;;;;;4969405;28;20035;-82
2021/01/15 00:53:16;;;;;;;0.00;0.00;;;-0.10;99.90;;;;;;4985749;28;20034;-82
2021/01/15 00:55:43;;;;;;;0.00;0.00;;;-0.10;99.90;;;;;;4969465;28;20046;-82
2021/01/15 00:58:13;;;;;;;0.00;0.00;;;-0.10;99.90;;;;;;4969568;28;20023;-81
2021/01/15 01:00:39;;;;;;;0.00;0.00;;;-0.10;99.90;;;;;;4985423;28;20031;-81
2021/01/15 01:03:12;;;;;;;0.00;0.00;;;0.00;99.90;;;;;;4969684;28;20031;-81
2021/01/15 01:05:38;;;;;;;0.00;0.00;;;0.10;99.90;;;;;;4969491;28;20495;-82
2021/01/15 01:08:04;;;;;;;0.00;0.00;;;0.10;99.90;;;;;;4969510;28;20030;-81
2021/01/15 01:10:31;;;;;;;0.00;0.00;;;0.00;99.90;;;;;;4985524;28;20070;-82
2021/01/15 01:12:57;;;;;;;0.00;0.00;;;0.00;99.90;;;;;;4969408;28;20035;-82
2021/01/15 01:15:23;;;;;;;0.00;0.00;;;0.00;99.90;;;;;;4969294;28;20471;-82
2021/01/15 01:17:49;;;;;;;0.00;0.00;;;0.00;99.90;;;;;;4985335;28;20086;-83
2021/01/15 01:20:15;;;;;;;0.00;0.00;;;0.00;99.90;;;;;;4969374;28;20392;-82
2021/01/15 01:22:40;;;;;;;0.00;0.00;;;-0.10;99.90;;;;;;4969033;28;20542;-82
2021/01/15 01:25:07;;;;;;;0.00;0.00;;;0.00;99.90;;;;;;4969345;28;20031;-82
2021/01/15 01:27:33;;;;;;;8.68;4.22;;;0.10;99.90;;;;;;4985493;28;20034;-82
2021/01/15 01:30:00;;;;;;;0.00;0.00;;;0.10;99.90;;;;;;4988891;28;20384;-83
2021/01/15 01:32:25;;;;;;;0.00;0.00;;;0.00;99.90;;;;;;4989133;28;20035;-82
2021/01/15 01:34:51;;;;;;;0.00;0.00;;;0.10;99.90;;;;;;4973009;28;20035;-82
2021/01/15 01:37:16;;;;;;;0.00;0.00;;;0.10;99.90;;;;;;4972898;28;20027;-82
2021/01/15 01:39:42;;;;;;;0.38;0.38;;;0.10;99.90;;;;;;4973178;28;20054;-82
2021/01/15 01:42:08;;;;;;;0.00;0.00;;;0.10;99.90;;;;;;4972739;28;20034;-81
2021/01/15 01:44:33;;;;;;;0.00;0.00;;;0.10;99.90;;;;;;4988927;28;20089;-81
2021/01/15 01:46:59;;;;;;;0.00;0.00;;;0.10;99.90;;;;;;4972567;28;20038;-82
2021/01/15 01:49:25;;;;;;;0.00;0.00;;;0.10;99.90;;;;;;4972248;28;20047;-83
2021/01/15 01:51:52;;;;;;;0.00;0.00;;;0.00;99.90;;;;;;4972693;28;20031;-82
2021/01/15 01:54:18;;;;;;;0.47;0.47;;;0.10;99.90;;;;;;4972547;28;20031;-82
2021/01/15 01:56:44;;;;;;;0.00;0.00;;;0.10;99.90;;;;;;4971888;28;20027;-81
2021/01/15 01:59:13;;;;;;;0.00;0.00;;;0.10;99.90;;;;;;5004846;28;20045;-82
2021/01/15 02:01:40;;;;;;;0.10;0.00;;;0.10;99.90;;;;;;4988455;28;20061;-82
2021/01/15 02:04:06;;;;;;;0.00;0.00;;;0.10;99.90;;;;;;5004814;28;20046;-83
2021/01/15 02:06:37;;;;;;;0.00;0.00;;;0.10;99.90;;;;;;5004878;28;20023;-81
2021/01/15 02:09:04;;;;;;;0.00;0.00;;;0.10;99.90;;;;;;5004601;28;20039;-82
2021/01/15 02:11:33;;;;;;;0.00;0.00;;;0.20;99.90;;;;;;4988473;28;20101;-83
2021/01/15 02:14:18;;;;;;;0.00;0.00;;;0.10;99.90;;;;;;5004671;28;20030;-81
2021/01/15 02:16:44;;;;;;;0.00;0.00;;;0.10;99.90;;;;;;4988268;28;20062;-82
2021/01/15 02:19:44;;;;;;;0.00;0.00;;;0.20;99.90;;;;;;4988136;28;20487;-82
2021/01/15 02:22:34;;;;;;;0.00;0.00;;;0.20;99.90;;;;;;4988209;28;20383;-82
2021/01/15 02:25:03;;;;;;;;;;;0.10;99.90;;;;;;4972292;28;20062;-82
2021/01/15 02:27:28;;;;;;;0.00;0.00;;;0.10;99.90;;;;;;4988317;28;19969;-82
2021/01/15 02:30:21;;;;;;;0.00;0.00;;;0.10;99.90;;;;;;4988050;28;20066;-82
2021/01/15 02:33:06;;;;;;;0.00;0.00;;;0.20;99.90;;;;;;4971593;28;20039;-82
2021/01/15 02:36:05;;;;;;;0.00;0.00;;;0.10;99.90;;;;;;4988138;28;20494;-82
2021/01/15 02:39:07;;;;;;;0.00;0.00;;;0.20;99.90;;;;;;4971586;28;20045;-82
2021/01/15 02:41:34;;;;;;;0.00;0.00;;;0.20;99.90;;;;;;4970761;28;20081;-82
2021/01/15 02:44:04;;;;;;;0.00;0.00;;;0.10;99.90;;;;;;4971709;28;20035;-82
2021/01/15 02:46:48;;;;;;;0.00;0.00;;;0.10;99.90;;;;;;4986913;28;20035;-83
2021/01/15 02:49:16;;;;;;;0.00;0.00;;;0.20;99.90;;;;;;4988786;28;20053;-82
2021/01/15 02:51:41;;;;;;;0.00;0.00;;;0.20;99.90;;;;;;4987748;28;20046;-81
2021/01/15 02:54:08;;;;;;;0.00;0.00;;;0.20;99.90;;;;;;5003937;28;20039;-81
2021/01/15 02:56:34;;;;;;;0.00;0.00;;;0.20;99.90;;;;;;4987764;28;20039;-82
2021/01/15 02:59:00;;;;;;;0.00;0.00;;;0.20;99.90;;;;;;4987856;28;20046;-82
2021/01/15 03:01:30;;;;;;;0.00;0.00;;;0.20;99.90;;;;;;5003868;28;20106;-86
2021/01/15 03:04:24;;;;;;;0.00;0.00;;;0.20;99.90;;;;;;4987742;28;20102;-86
2021/01/15 03:06:54;;;;;;;0.00;0.00;;;0.20;99.90;;;;;;4987690;28;20034;-84
2021/01/15 03:09:20;;;;;;;0.00;0.00;;;0.20;99.90;;;;;;4987445;28;20051;-82
2021/01/15 03:11:47;;;;;;;0.00;0.00;;;0.20;99.90;;;;;;4971371;28;20031;-82
2021/01/15 03:14:15;;;;;;;0.00;0.00;;;0.20;99.90;;;;;;4987453;28;20062;-82
2021/01/15 03:16:42;;;;;;;0.52;0.10;;;0.20;99.90;;;;;;4988849;28;20030;-82
2021/01/15 03:19:08;;;;;;;0.00;0.00;;;0.20;99.90;;;;;;4984022;28;20440;-83
2021/01/15 03:21:37;;;;;;;0.00;0.00;;;0.20;99.90;;;;;;5000373;28;20035;-83
2021/01/15 03:24:04;;;;;;;0.00;0.00;;;0.20;99.90;;;;;;4983898;28;20031;-83
2021/01/15 03:26:30;;;;;;;0.00;0.00;;;0.20;99.90;;;;;;4983761;28;20070;-82
2021/01/15 03:28:56;;;;;;;0.00;0.00;;;0.20;99.90;;;;;;4999940;28;20035;-82
2021/01/15 03:31:21;;;;;;;0.00;0.00;;;0.20;99.90;;;;;;4983679;28;20404;-82
2021/01/15 03:33:47;;;;;;;0.00;0.00;;;0.20;99.90;;;;;;4968944;29;20031;-82
2021/01/15 03:36:13;;;;;;;0.00;0.00;;;0.20;99.90;;;;;;4999916;28;20035;-82
2021/01/15 03:38:38;;;;;;;0.00;0.00;;;0.20;99.90;;;;;;4983604;28;20035;-82
2021/01/15 03:41:04;;;;;;;0.00;0.00;;;0.30;99.90;;;;;;4983575;28;20032;-82
2021/01/15 03:43:30;;;;;;;0.00;0.00;;;0.20;99.90;;;;;;4967426;29;20039;-83
2021/01/15 03:45:56;;;;;;;1.25;0.30;;;0.20;99.90;;;;;;4983237;28;20055;-82
2021/01/15 03:48:22;;;;;;;0.00;0.00;;;0.30;99.90;;;;;;4986333;28;20051;-82
2021/01/15 03:50:49;;;;;;;0.03;0.03;;;0.30;99.90;;;;;;4986436;28;20538;-82
2021/01/15 03:53:15;;;;;;;0.00;0.00;;;0.30;99.90;;;;;;4986581;28;20027;-82
2021/01/15 03:55:41;;;;;;;0.75;0.75;;;0.30;99.90;;;;;;4970349;28;20035;-82
2021/01/15 03:58:07;;;;;;;0.22;0.22;;;0.30;99.90;;;;;;4970266;28;20037;-82
2021/01/15 04:00:33;;;;;;;0.63;0.63;;;0.30;99.90;;;;;;4970426;28;20031;-82
2021/01/15 04:02:59;;;;;;;0.00;0.00;;;0.20;99.90;;;;;;4970243;28;20034;-83
2021/01/15 04:05:24;;;;;;;0.00;0.00;;;0.20;99.90;;;;;;4986484;28;20037;-82
2021/01/15 04:07:50;;;;;;;0.00;0.00;;;0.30;99.90;;;;;;5002435;28;20038;-82
2021/01/15 04:10:17;;;;;;;0.00;0.00;;;0.30;99.90;;;;;;4970051;28;20081;-82
2021/01/15 04:12:44;;;;;;;0.00;0.00;;;0.30;99.90;;;;;;4969979;28;20062;-81
2021/01/15 04:15:11;;;;;;;0.70;0.30;;;0.30;99.90;;;;;;4969804;28;20368;-82
2021/01/15 04:17:38;;;;;;;0.00;0.00;;;0.30;99.90;;;;;;4986055;28;20042;-83
2021/01/15 04:20:05;;;;;;;0.00;0.00;;;0.30;99.90;;;;;;4970100;28;20415;-83
2021/01/15 04:22:33;;;;;;;0.00;0.00;;;0.30;99.90;;;;;;4986089;28;20053;-82
2021/01/15 04:25:00;;;;;;;0.00;0.00;;;0.30;99.90;;;;;;4986119;28;20034;-82
2021/01/15 04:27:32;;;;;;;2.55;2.35;;;0.30;99.90;;;;;;4969733;28;20035;-82
2021/01/15 04:29:59;;;;;;;0.00;0.00;;;0.30;99.90;;;;;;4969882;28;20093;-82
2021/01/15 04:32:25;;;;;;;0.00;0.00;;;0.30;99.90;;;;;;4985901;28;20034;-82
2021/01/15 04:34:50;;;;;;;0.38;0.38;;;0.30;99.90;;;;;;4969936;28;20035;-83
2021/01/15 04:37:16;;;;;;;0.00;0.00;;;0.30;99.90;;;;;;4969847;28;20041;-83
2021/01/15 04:39:42;;;;;;;3.75;1.23;;;0.30;99.90;;;;;;4985866;28;20030;-85
2021/01/15 04:42:08;;;;;;;0.00;0.00;;;0.30;99.90;;;;;;4985853;28;20030;-83
2021/01/15 04:44:34;;;;;;;0.00;0.00;;;0.30;99.90;;;;;;4969636;28;20046;-82
2021/01/15 04:47:05;;;;;;;0.00;0.00;;;0.30;99.90;;;;;;4985519;28;20046;-83
2021/01/15 04:49:34;;;;;;;0.00;0.00;;;0.30;99.90;;;;;;4969481;28;20546;-83
2021/01/15 04:52:03;;;;;;;0.00;0.00;;;0.30;99.90;;;;;;4969621;28;20035;-82
2021/01/15 04:54:37;;;;;;;0.00;0.00;;;0.30;99.90;;;;;;4985735;28;20055;-82
2021/01/15 04:57:08;;;;;;;0.00;0.00;;;0.30;99.90;;;;;;4985863;28;20058;-83
2021/01/15 04:59:54;;;;;;;0.00;0.00;;;0.30;99.90;;;;;;4986017;28;20031;-82
2021/01/15 05:02:20;;;;;;;0.00;0.00;;;0.30;99.90;;;;;;4969347;28;20034;-83
2021/01/15 05:04:45;;;;;;;0.00;0.00;;;0.30;99.90;;;;;;4989022;28;20059;-83
2021/01/15 05:07:13;;;;;;;0.00;0.00;;;0.30;99.90;;;;;;4989704;28;20085;-83
2021/01/15 05:09:43;;;;;;;0.00;0.00;;;0.30;99.90;;;;;;4973449;28;20062;-82
2021/01/15 05:12:13;;;;;;;0.00;0.00;;;0.30;99.90;;;;;;5005528;28;20031;-83
2021/01/15 05:14:41;;;;;;;;;;;0.30;99.90;;;;;;4973747;28;20038;-82
2021/01/15 05:17:08;;;;;;;0.00;0.00;;;0.30;99.90;;;;;;4973037;28;19935;-82
2021/01/15 05:19:39;;;;;;;0.00;0.00;;;0.30;99.90;;;;;;4973332;28;20045;-83
2021/01/15 05:22:06;;;;;;;0.00;0.00;;;0.30;99.90;;;;;;4989416;28;20059;-82
2021/01/15 05:24:32;;;;;;;0.00;0.00;;;0.30;99.90;;;;;;4989328;28;20062;-82
2021/01/15 05:27:01;;;;;;;0.00;0.00;;;0.30;99.90;;;;;;4989209;28;20090;-83
2021/01/15 05:29:27;;;;;;;0.00;0.00;;;0.30;99.90;;;;;;4988624;28;20040;-82
2021/01/15 05:31:59;;;;;;;0.00;0.00;;;0.30;99.90;;;;;;4972535;28;20295;-81
2021/01/15 05:34:28;;;;;;;0.00;0.00;;;0.30;99.90;;;;;;4967775;28;20027;-83
2021/01/15 05:36:55;;;;;;;0.00;0.00;;;0.30;99.90;;;;;;4972916;28;20049;-83
2021/01/15 05:39:23;;;;;;;0.22;0.22;;;0.30;99.90;;;;;;4988905;28;20074;-82
2021/01/15 05:41:56;;;;;;;0.00;0.00;;;0.30;99.90;;;;;;4953770;28;20039;-81
2021/01/15 05:44:29;;;;;;;0.00;0.00;;;0.30;99.90;;;;;;4986104;28;20043;-84
2021/01/15 05:46:56;;;;;;;0.00;0.00;;;0.30;99.90;;;;;;4986936;28;20023;-82
2021/01/15 05:49:22;;;;;;;0.00;0.00;;;0.30;99.90;;;;;;4974114;28;20051;-82
2021/01/15 05:51:48;;;;;;;0.00;0.00;;;0.30;99.90;;;;;;4968606;28;20114;-82
2021/01/15 05:54:28;;;;;;;0.00;0.00;;;0.30;99.90;;;;;;4965144;29;20038;-82
2021/01/15 05:56:54;;;;;;;0.00;0.00;;;0.30;99.90;;;;;;4972581;28;20030;-85
2021/01/15 05:59:20;;;;;;;0.00;0.00;;;0.30;99.90;;;;;;4954198;28;20043;-82
2021/01/15 06:01:50;;;;;;;0.00;0.00;;;0.30;99.90;;;;;;4954155;29;20055;-82
2021/01/15 06:04:32;;;;;;;0.00;0.00;;;0.30;99.90;;;;;;4947874;29;20030;-81
2021/01/15 06:07:00;;;;;;;0.00;0.00;;;0.30;99.90;;;;;;4947251;29;20036;-83
2021/01/15 06:09:25;;;;;;;0.00;0.00;;;0.30;99.90;;;;;;4953748;29;20043;-82
2021/01/15 06:12:03;;;;;;;0.00;0.00;;;0.30;99.90;;;;;;4949422;29;20039;-82
2021/01/15 06:14:28;;;;;;;0.00;0.00;;;0.30;99.90;;;;;;4950708;28;20078;-84
2021/01/15 06:17:08;;;;;;;0.00;0.00;;;0.30;99.90;;;;;;4957819;29;20122;-81
2021/01/15 06:19:48;;;;;;;0.00;0.00;;;0.30;99.90;;;;;;4952923;29;20377;-82
2021/01/15 06:22:30;;;;;;;0.00;0.00;;;0.40;99.90;;;;;;4960125;29;20038;-80
2021/01/15 06:25:11;;;;;;;0.00;0.00;;;0.40;99.90;;;;;;4951112;29;20494;-82
2021/01/15 06:27:39;;;;;;;0.00;0.00;;;0.30;99.90;;;;;;4953000;29;20031;-82
2021/01/15 06:30:16;;;;;;;0.00;0.00;;;0.40;99.90;;;;;;4949214;29;20412;-82
2021/01/15 06:32:43;;;;;;;0.00;0.00;;;0.30;99.90;;;;;;4952747;29;20090;-82
2021/01/15 06:35:25;;;;;;;1.20;1.17;;;0.40;99.90;;;;;;4953279;29;20032;-82
2021/01/15 06:38:05;;;;;;;0.00;0.00;;;0.40;99.90;;;;;;4957297;29;20042;-81
2021/01/15 06:40:39;;;;;;;0.00;0.00;;;0.40;99.90;;;;;;4946717;29;20067;-82
2021/01/15 06:43:07;;;;;;;0.47;0.47;;;0.40;99.90;;;;;;4949100;29;20032;-82
2021/01/15 06:45:57;;;;;;;0.00;0.00;;;0.40;99.90;;;;;;4948617;29;20032;-81
2021/01/15 06:48:37;;;;;;;0.70;0.70;;;0.40;99.90;;;;;;4905802;29;20428;-83
2021/01/15 06:51:05;;;;;;;0.00;0.00;;;0.40;99.90;;;;;;4925865;29;20082;-81
2021/01/15 06:53:31;;;;;;;0.00;0.00;;;0.40;99.90;;;;;;4925801;29;20044;-82
2021/01/15 06:56:01;;;;;;;0.00;0.00;;;0.40;99.90;;;;;;4926016;29;20040;-82
2021/01/15 06:58:40;;;;;;;19.10;1.17;;;0.40;99.90;;;;;;4925486;29;20029;-82
2021/01/15 07:01:22;;;;;;;0.00;0.00;;;0.40;99.90;;;;;;4926953;29;20032;-83
2021/01/15 07:04:29;;;;;;;0.00;0.00;;;0.40;99.90;;;;;;4912822;29;20035;-81
2021/01/15 07:06:59;;;;;;;0.00;0.00;;;0.40;99.90;;;;;;4913179;29;20304;-82
2021/01/15 07:09:29;;;;;;;0.00;0.00;;;0.40;99.90;;;;;;4928717;29;20044;-81
2021/01/15 07:11:55;;;;;;;0.00;0.00;;;0.40;99.90;;;;;;4912635;29;20079;-81
2021/01/15 07:14:27;;;;;;;0.00;0.00;;;0.40;99.90;;;;;;4928402;29;20098;-82
2021/01/15 07:16:55;;;;;;;0.00;0.00;;;0.40;99.90;;;;;;4928567;29;20028;-81
2021/01/15 07:19:42;;;;;;;0.00;0.00;;;0.40;99.90;;;;;;4928497;29;20157;-82
2021/01/15 07:22:09;;;;;;;0.00;0.00;;;0.30;99.90;;;;;;4928384;29;20064;-82
2021/01/15 07:24:37;;;;;;;0.00;0.00;;;0.30;99.90;;;;;;4932165;29;20047;-83
2021/01/15 07:27:04;;;;;;;0.00;0.00;;;0.30;99.90;;;;;;4948380;29;20058;-82
2021/01/15 07:29:39;;;;;;;0.05;0.05;;;0.30;99.90;;;;;;4928587;28;20051;-82
2021/01/15 07:32:20;;;;;;;0.32;0.32;;;0.30;99.90;;;;;;4947749;29;20103;-83
2021/01/15 07:34:49;;;;;;;0.00;0.00;;;0.30;99.90;;;;;;4947685;29;20035;-83
2021/01/15 07:37:25;;;;;;;0.00;0.00;;;0.30;99.90;;;;;;4948106;29;20035;-81
2021/01/15 07:40:10;;;;;;;0.00;0.00;;;0.30;99.90;;;;;;4948205;29;20036;-80
2021/01/15 07:42:42;;;;;;;0.00;0.00;;;0.30;99.90;;;;;;4948245;29;20032;-82
2021/01/15 07:45:31;;;;;;;0.00;0.00;;;0.30;99.90;;;;;;4947710;29;20115;-83
2021/01/15 07:48:02;;;;;;;0.00;0.00;;;0.30;99.90;;;;;;4947823;29;20134;-82
2021/01/15 07:50:30;;;;;;;0.00;0.00;;;0.30;99.90;;;;;;4970990;28;20045;-85
2021/01/15 07:53:22;;;;;;;0.00;0.00;;;0.30;99.90;;;;;;4966138;28;20040;-85
2021/01/15 07:55:50;;;;;;;1.65;0.80;;;0.30;99.90;;;;;;4952562;29;20043;-84
2021/01/15 07:58:23;;;;;;;0.00;0.00;;;0.20;99.90;;;;;;4970741;28;20440;-89
2021/01/15 08:00:49;;;;;;;0.00;0.00;;;0.30;99.90;;;;;;4968303;28;20041;-86
2021/01/15 08:03:15;;;;;;;0.00;0.00;;;0.30;99.90;;;;;;4984658;28;20122;-87
2021/01/15 08:05:43;;;;;;;0.00;0.00;;;0.30;99.90;;;;;;4969374;28;20381;-90
2021/01/15 08:08:12;;;;;;;0.00;0.00;;;0.30;99.90;;;;;;4971343;28;20570;-90
2021/01/15 08:10:45;;;;;;;0.00;0.00;;;0.30;99.90;;;;;;4970114;28;20035;-87
2021/01/15 08:13:18;;;;;;;1.77;1.77;;;0.30;99.90;;;;;;4970226;28;20038;-92
2021/01/15 08:15:43;;;;;;;0.00;0.00;;;0.20;99.90;;;;;;4968380;28;20035;-84
2021/01/15 08:18:09;;;;;;;0.00;0.00;;;0.30;99.90;;;;;;4967788;28;20099;-87
2021/01/15 08:20:35;;;;;;;0.00;0.00;;;0.30;99.90;;;;;;4969900;28;20042;-83
2021/01/15 08:23:01;;;;;;;0.00;0.00;;;0.20;99.90;;;;;;4968436;28;20031;-84
2021/01/15 08:25:28;;;;;;;0.00;0.00;;;0.30;99.90;;;;;;4968556;28;20161;-85
2021/01/15 08:27:56;;;;;;;0.00;0.00;;;0.30;99.90;;;;;;4968332;28;20035;-89
2021/01/15 08:30:22;;;;;;;0.00;0.00;;;0.30;99.90;;;;;;4949576;28;20469;-87
2021/01/15 08:32:48;;;;;;;0.00;0.00;;;0.30;99.90;;;;;;4968478;28;20066;-81
2021/01/15 08:35:21;;;;;;;0.00;0.00;;;0.30;99.90;;;;;;4967691;28;20121;-85
2021/01/15 08:37:52;;;;;;;2.85;2.75;;;0.30;99.90;;;;;;4967184;28;20027;-85
2021/01/15 08:40:25;;;;;;;0.00;0.00;;;0.30;99.90;;;;;;4967689;28;20587;-88
2021/01/15 08:42:57;;;;;;;0.00;0.00;;;0.30;99.90;;;;;;4964234;28;20027;-84
2021/01/15 08:45:27;;;;;;;0.10;0.10;;;0.40;99.90;;;;;;4956404;29;20149;-85
2021/01/15 08:47:55;;;;;;;0.00;0.00;;;0.30;99.90;;;;;;4963197;28;20119;-83
2021/01/15 08:50:22;;;;;;;0.00;0.00;;;0.40;99.90;;;;;;4969065;28;20051;-82
2021/01/15 08:52:49;;;;;;;1.35;1.17;;;0.40;99.90;;;;;;4984520;28;20027;-83
2021/01/15 08:55:16;;;;;;;0.10;0.10;;;0.40;99.90;;;;;;4952252;29;20066;-84
2021/01/15 08:57:42;;;;;;;0.70;0.70;;;0.40;99.90;;;;;;4968167;28;20038;-86
2021/01/15 09:00:10;;;;;;;0.00;0.00;;;0.40;99.90;;;;;;4968169;28;20071;-88
2021/01/15 09:02:40;;;;;;;0.00;0.00;;;0.40;99.90;;;;;;4986560;28;20031;-83
2021/01/15 09:05:09;;;;;;;0.20;0.20;;;0.40;99.90;;;;;;4949927;29;20042;-84
2021/01/15 09:07:46;;;;;;;0.00;0.00;;;0.40;99.90;;;;;;4952047;29;20066;-85
2021/01/15 09:10:14;;;;;;;0.30;0.30;;;0.40;99.90;;;;;;4968507;28;20047;-82
2021/01/15 09:12:43;;;;;;;0.00;0.00;;;0.40;99.90;;;;;;4966897;28;20031;-82
2021/01/15 09:15:30;;;;;;;0.00;0.00;;;0.50;99.90;;;;;;4982008;28;20036;-83
2021/01/15 09:17:58;;;;;;;1.10;1.02;;;0.50;99.90;;;;;;4951851;29;20027;-84
2021/01/15 09:20:24;;;;;;;0.13;0.05;;;0.50;99.90;;;;;;4986099;28;20049;-84
2021/01/15 09:22:50;;;;;;;0.00;0.00;;;0.60;99.90;;;;;;4968573;28;20036;-84
2021/01/15 09:25:17;;;;;;;0.00;0.00;;;0.60;99.90;;;;;;4968037;28;20031;-89
2021/01/15 09:27:43;;;;;;;0.00;0.00;;;0.60;99.90;;;;;;4968144;28;20090;-87
2021/01/15 09:30:11;;;;;;;0.77;0.77;;;0.60;99.90;;;;;;4955722;28;20172;-82
2021/01/15 09:32:41;;;;;;;0.00;0.00;;;0.60;99.90;;;;;;4966963;28;20035;-86
2021/01/15 09:35:07;;;;;;;0.00;0.00;;;0.60;99.90;;;;;;4967556;28;20032;-91
2021/01/15 09:38:27;;;;;;;0.00;0.00;;;0.70;99.90;;;;;;4968030;28;20047;-91
2021/01/15 09:41:20;;;;;;;0.00;0.00;;;0.70;99.90;;;;;;4965877;28;20374;-91
2021/01/15 09:43:46;;;;;;;0.00;0.00;;;0.70;99.90;;;;;;4967058;28;20308;-92
2021/01/15 09:46:26;;;;;;;0.10;0.10;;;0.70;99.90;;;;;;4968047;28;20035;-91
2021/01/15 09:48:54;;;;;;;0.00;0.00;;;0.80;99.90;;;;;;4951813;28;20660;-91
2021/01/15 09:51:21;;;;;;;0.00;0.00;;;0.80;99.90;;;;;;4967174;29;20050;-91
2021/01/15 09:53:50;;;;;;;0.00;0.00;;;0.80;99.90;;;;;;4967537;28;20480;-91
2021/01/15 09:56:29;;;;;;;0.00;0.00;;;0.80;99.90;;;;;;4955313;29;20031;-91
2021/01/15 09:58:57;;;;;;;0.00;0.00;;;0.90;99.90;;;;;;4983702;28;20035;-89
2021/01/15 10:01:26;;;;;;;0.00;0.00;;;0.90;99.90;;;;;;4970623;28;20050;-91
2021/01/15 10:03:53;;;;;;;0.00;0.00;;;0.90;99.90;;;;;;4971197;28;20059;-89
2021/01/15 10:06:19;;;;;;;0.00;0.00;;;0.90;99.90;;;;;;4957096;28;20078;-89
2021/01/15 10:08:46;;;;;;;0.20;0.20;;;0.90;99.90;;;;;;4972538;28;20120;-89
2021/01/15 10:11:21;;;;;;;0.00;0.00;;;0.90;99.90;;;;;;4969128;28;20059;-89
2021/01/15 10:13:48;;;;;;;0.00;0.00;;;1.00;99.90;;;;;;4971245;28;20032;-90
2021/01/15 10:16:14;;;;;;;0.00;0.00;;;1.00;99.90;;;;;;4972025;28;20039;-89
2021/01/15 10:18:40;;;;;;;0.00;0.00;;;1.00;99.90;;;;;;4973175;28;20037;-89
2021/01/15 10:21:09;;;;;;;0.00;0.00;;;1.00;99.90;;;;;;4970896;28;20468;-89
2021/01/15 10:23:35;;;;;;;0.05;0.05;;;1.00;99.90;;;;;;4968427;28;20059;-89
2021/01/15 10:26:02;;;;;;;0.00;0.00;;;1.00;99.90;;;;;;4968146;28;20563;-90
2021/01/15 10:28:28;;;;;;;0.00;0.00;;;1.00;99.90;;;;;;4974100;28;20094;-89
2021/01/15 10:30:53;;;;;;;0.00;0.00;;;1.00;99.90;;;;;;4949372;28;20075;-87
2021/01/15 10:33:23;;;;;;;0.00;0.00;;;1.00;99.90;;;;;;4989095;28;20031;-90
2021/01/15 10:35:52;;;;;;;0.00;0.00;;;1.10;99.90;;;;;;4969382;28;20032;-89
2021/01/15 10:39:10;;;;;;;0.00;0.00;;;1.10;99.90;;;;;;4970009;28;20039;-92
2021/01/15 10:41:42;;;;;;;0.00;0.00;;;1.10;99.90;;;;;;4944685;29;20024;-89
2021/01/15 10:44:09;;;;;;;0.00;0.00;;;1.10;99.90;;;;;;4912604;29;20071;-90
2021/01/15 10:46:43;;;;;;;0.00;0.00;;;1.10;99.90;;;;;;4912564;29;20036;-89
2021/01/15 10:49:16;;;;;;;0.00;0.00;;;1.10;99.90;;;;;;4917553;29;20060;-90
2021/01/15 10:51:55;;;;;;;0.00;0.00;;;1.10;99.90;;;;;;4905757;29;20039;-89
2021/01/15 10:54:22;;;;;;;0.20;0.20;;;1.10;99.90;;;;;;4944932;29;20042;-90
2021/01/15 10:56:51;;;;;;;0.00;0.00;;;1.10;99.90;;;;;;4932620;29;20051;-91
2021/01/15 10:59:17;;;;;;;0.00;0.00;;;1.20;99.90;;;;;;4932019;29;20042;-91
2021/01/15 11:01:50;;;;;;;0.00;0.00;;;1.10;99.90;;;;;;4912355;29;20040;-89
2021/01/15 11:04:18;;;;;;;0.00;0.00;;;1.20;99.90;;;;;;4912419;29;20080;-92
2021/01/15 11:06:46;;;;;;;1.83;1.80;;;1.20;99.90;;;;;;4911913;29;20560;-89
2021/01/15 11:09:18;;;;;;;1.55;1.55;;;1.20;99.90;;;;;;4896626;29;20036;-91
2021/01/15 11:11:51;;;;;;;0.00;0.00;;;1.10;99.90;;;;;;4933455;28;20043;-91
2021/01/15 11:14:20;;;;;;;0.00;0.00;;;1.20;99.90;;;;;;4967483;28;20031;-90
2021/01/15 11:16:46;;;;;;;0.00;0.00;;;1.20;99.90;;;;;;4965049;28;20032;-91
2021/01/15 11:19:13;;;;;;;0.00;0.00;;;1.20;99.90;;;;;;4967500;28;20035;-90
2021/01/15 11:21:39;;;;;;;0.00;0.00;;;1.20;99.90;;;;;;4968592;28;20054;-91
2021/01/15 11:24:06;;;;;;;0.00;0.00;;;1.20;99.90;;;;;;4967751;28;20023;-91
2021/01/15 11:26:32;;;;;;;2.15;2.05;;;1.20;99.90;;;;;;4967584;28;20090;-90
2021/01/15 11:29:01;;;;;;;2.70;2.60;;;1.30;99.90;;;;;;4967602;28;20042;-91
2021/01/15 11:31:27;;;;;;;0.08;0.05;;;1.30;99.90;;;;;;4966074;28;20330;-90
2021/01/15 11:33:53;;;;;;;0.00;0.00;;;1.30;99.90;;;;;;4952667;28;20027;-90
2021/01/15 11:36:19;;;;;;;1.25;1.25;;;1.30;99.90;;;;;;4967471;28;20067;-90
2021/01/15 11:38:46;;;;;;;0.00;0.00;;;1.30;99.90;;;;;;4963190;29;20050;-91
2021/01/15 11:41:13;;;;;;;0.00;0.00;;;1.30;99.90;;;;;;4963443;29;20036;-90
2021/01/15 11:43:39;;;;;;;0.00;0.00;;;1.30;99.90;;;;;;4963932;28;20084;-91
2021/01/15 11:46:05;;;;;;;0.00;0.00;;;1.30;99.90;;;;;;4963524;29;20027;-90
2021/01/15 11:48:32;;;;;;;0.00;0.00;;;1.30;99.90;;;;;;4966677;29;20039;-91
2021/01/15 11:50:58;;;;;;;0.00;0.00;;;1.30;99.90;;;;;;4966594;29;20058;-88
2021/01/15 11:53:24;;;;;;;0.00;0.00;;;1.30;99.90;;;;;;4963976;29;20072;-91
2021/01/15 11:55:51;;;;;;;0.85;0.85;;;1.30;99.90;;;;;;4966687;29;20106;-91
2021/01/15 11:58:17;;;;;;;0.00;0.00;;;1.30;99.90;;;;;;4966646;29;20032;-89
2021/01/15 12:00:43;;;;;;;0.00;0.00;;;1.30;99.90;;;;;;4966766;28;20192;-92
2021/01/15 12:03:09;;;;;;;0.30;0.30;;;1.40;99.90;;;;;;4966547;29;20401;-91
2021/01/15 12:05:51;;;;;;;0.00;0.00;;;1.40;99.90;;;;;;4966190;28;20027;-89
2021/01/15 12:08:19;;;;;;;0.00;0.00;;;1.40;99.90;;;;;;4966107;29;20031;-90
2021/01/15 12:10:48;;;;;;;0.00;0.00;;;1.40;99.90;;;;;;4966584;28;20039;-88
2021/01/15 12:13:14;;;;;;;0.20;0.20;;;1.30;99.90;;;;;;4965445;28;20023;-92
2021/01/15 12:15:40;;;;;;;0.00;0.00;;;1.30;99.90;;;;;;4966351;29;20105;-89
2021/01/15 12:18:06;;;;;;;0.00;0.00;;;1.30;99.90;;;;;;4966124;28;20459;-90
2021/01/15 12:20:36;;;;;;;0.00;0.00;;;1.40;99.90;;;;;;4966460;28;20110;-89
2021/01/15 12:23:03;;;;;;;0.00;0.00;;;1.40;99.90;;;;;;4965600;28;20077;-90
2021/01/15 12:25:28;;;;;;;1.98;1.02;;;1.30;99.90;;;;;;4985088;28;20042;-89
2021/01/15 12:27:54;;;;;;;0.00;0.00;;;1.40;99.90;;;;;;4985208;28;20031;-89
2021/01/15 12:30:20;;;;;;;1.38;1.38;;;1.30;99.90;;;;;;4985407;28;20043;-88
2021/01/15 12:32:47;;;;;;;0.00;0.00;;;1.30;99.90;;;;;;4985629;28;20479;-89
2021/01/15 12:35:13;;;;;;;0.00;0.00;;;1.40;99.90;;;;;;4985445;28;20041;-88
2021/01/15 12:37:39;;;;;;;0.00;0.00;;;1.40;99.90;;;;;;4985235;28;20026;-90
2021/01/15 12:40:05;;;;;;;0.00;0.00;;;1.40;99.90;;;;;;4985446;28;20123;-90
2021/01/15 12:42:31;;;;;;;7.75;0.52;;;1.30;99.90;;;;;;5001873;28;20033;-89
2021/01/15 12:44:57;;;;;;;0.00;0.00;;;1.30;99.90;;;;;;4985295;28;20031;-89
2021/01/15 12:47:22;;;;;;;0.00;0.00;;;1.30;99.90;;;;;;5014447;23;20137;-90
2021/01/15 12:49:51;;;;;;;0.00;0.00;;;1.30;99.90;;;;;;5008586;28;20037;-90
2021/01/15 12:52:20;;;;;;;0.00;0.00;;;1.30;99.90;;;;;;5008604;28;20421;-90
2021/01/15 12:54:45;;;;;;;0.77;0.77;;;1.40;99.90;;;;;;5024765;28;20072;-89
2021/01/15 12:57:11;;;;;;;0.00;0.00;;;1.40;99.90;;;;;;5008708;28;20049;-89
2021/01/15 12:59:37;;;;;;;0.00;0.00;;;1.40;99.90;;;;;;5008500;28;20037;-88
2021/01/15 13:02:03;;;;;;;0.00;0.00;;;1.40;99.90;;;;;;5008458;28;20045;-89
2021/01/15 13:04:30;;;;;;;0.00;0.00;;;1.40;99.90;;;;;;5024744;28;20094;-89
2021/01/15 13:06:56;;;;;;;0.00;0.00;;;1.40;99.90;;;;;;5008296;28;20030;-88
2021/01/15 13:09:21;;;;;;;0.00;0.00;;;1.50;99.90;;;;;;5008389;28;20152;-91
2021/01/15 13:11:48;;;;;;;0.00;0.00;;;1.50;99.90;;;;;;5008365;28;20022;-90